sensor_id;sensor_type;location;lat;lon;timestamp;temperature;humidity
62912;DHT22;49111;51.028;4.218;2022-10-16T06:09:43;14.60;99.90
62912;DHT22;49111;51.028;4.218;2022-10-16T06:12:10;14.60;99.90
62912;DHT22;49111;51.028;4.218;2022-10-16T06:14:36;14.70;99.90
62912;DHT22;49111;51.028;4.218;2022-10-16T06:17:02;14.80;99.90
62912;DHT22;49111;51.028;4.218;2022-10-16T06:19:27;14.80;99.90
62912;DHT22;49111;51.028;4.218;2022-10-16T06:21:53;14.70;99.90
62912;DHT22;49111;51.028;4.218;2022-10-16T06:24:19;14.80;99.90
62912;DHT22;49111;51.028;4.218;2022-10-16T06:26:45;14.80;99.90
62912;DHT22;49111;51.028;4.218;2022-10-16T06:29:10;14.70;99.90
62912;DHT22;49111;51.028;4.218;2022-10-16T06:31:36;14.70;99.90
62912;DHT22;49111;51.028;4.218;2022-10-16T06:34:02;14.70;99.90
62912;DHT22;49111;51.028;4.218;2022-10-16T06:36:30;14.60;99.90
62912;DHT22;49111;51.028;4.218;2022-10-16T06:38:55;14.60;99.90
62912;DHT22;49111;51.028;4.218;2022-10-16T06:41:22;14.60;99.90
62912;DHT22;49111;51.028;4.218;2022-10-16T06:43:48;14.60;99.90
62912;DHT22;49111;51.028;4.218;2022-10-16T06:46:17;14.50;99.90
62912;DHT22;49111;51.028;4.218;2022-10-16T06:48:43;14.50;99.90
62912;DHT22;49111;51.028;4.218;2022-10-16T06:53:39;14.50;99.90
62912;DHT22;49111;51.028;4.218;2022-10-16T06:56:14;14.50;99.90
62912;DHT22;49111;51.028;4.218;2022-10-16T06:58:40;14.50;99.90
62912;DHT22;49111;51.028;4.218;2022-10-16T07:01:07;14.50;99.90
62912;DHT22;49111;51.028;4.218;2022-10-16T07:03:36;14.50;99.90
62912;DHT22;49111;51.028;4.218;2022-10-16T07:06:04;14.50;99.90
62912;DHT22;49111;51.028;4.218;2022-10-16T07:08:32;14.60;99.90
62912;DHT22;49111;51.028;4.218;2022-10-16T07:11:06;14.60;99.90
62912;DHT22;49111;51.028;4.218;2022-10-16T07:13:36;14.60;99.90
62912;DHT22;49111;51.028;4.218;2022-10-16T07:16:07;14.80;99.90
62912;DHT22;49111;51.028;4.218;2022-10-16T07:18:33;14.80;99.90
62912;DHT22;49111;51.028;4.218;2022-10-16T07:21:05;14.80;99.90
62912;DHT22;49111;51.028;4.218;2022-10-16T07:23:31;14.80;99.90
62912;DHT22;49111;51.028;4.218;2022-10-16T07:25:56;14.90;99.90
62912;DHT22;49111;51.028;4.218;2022-10-16T07:28:22;14.80;99.90
62912;DHT22;49111;51.028;4.218;2022-10-16T07:30:49;14.70;99.90
62912;DHT22;49111;51.028;4.218;2022-10-16T07:33:15;14.80;99.90
62912;DHT22;49111;51.028;4.218;2022-10-16T07:35:59;14.90;99.90
62912;DHT22;49111;51.028;4.218;2022-10-16T07:38:25;14.80;99.90
62912;DHT22;49111;51.028;4.218;2022-10-16T07:41:05;14.70;99.90
62912;DHT22;49111;51.028;4.218;2022-10-16T07:43:31;14.80;99.90
62912;DHT22;49111;51.028;4.218;2022-10-16T07:45:57;14.90;99.90
62912;DHT22;49111;51.028;4.218;2022-10-16T07:48:24;14.90;99.90
62912;DHT22;49111;51.028;4.218;2022-10-16T07:50:51;15.10;99.90
62912;DHT22;49111;51.028;4.218;2022-10-16T07:53:17;15.00;99.90
62912;DHT22;49111;51.028;4.218;2022-10-16T07:55:46;15.10;99.90
62912;DHT22;49111;51.028;4.218;2022-10-16T07:58:11;15.10;99.90
62912;DHT22;49111;51.028;4.218;2022-10-16T08:00:38;15.10;99.90
62912;DHT22;49111;51.028;4.218;2022-10-16T08:03:04;15.20;99.90
62912;DHT22;49111;51.028;4.218;2022-10-16T08:05:32;15.20;99.90
62912;DHT22;49111;51.028;4.218;2022-10-16T08:07:59;15.30;99.90
62912;DHT22;49111;51.028;4.218;2022-10-16T08:10:27;15.30;99.90
62912;DHT22;49111;51.028;4.218;2022-10-16T08:12:53;15.30;99.90
62912;DHT22;49111;51.028;4.218;2022-10-16T08:15:19;15.40;99.90
62912;DHT22;49111;51.028;4.218;2022-10-16T08:17:54;15.40;99.90
62912;DHT22;49111;51.028;4.218;2022-10-16T08:20:20;15.30;99.90
62912;DHT22;49111;51.028;4.218;2022-10-16T08:22:46;15.30;99.90
62912;DHT22;49111;51.028;4.218;2022-10-16T08:25:11;15.40;99.90
62912;DHT22;49111;51.028;4.218;2022-10-16T08:27:37;15.50;99.90
62912;DHT22;49111;51.028;4.218;2022-10-16T08:30:03;15.40;99.90
62912;DHT22;49111;51.028;4.218;2022-10-16T08:32:29;15.50;99.90
62912;DHT22;49111;51.028;4.218;2022-10-16T08:34:55;15.50;99.90
62912;DHT22;49111;51.028;4.218;2022-10-16T08:37:21;15.70;99.90
62912;DHT22;49111;51.028;4.218;2022-10-16T08:39:46;15.70;99.90
62912;DHT22;49111;51.028;4.218;2022-10-16T08:42:46;15.70;99.90
62912;DHT22;49111;51.028;4.218;2022-10-16T08:50:44;15.70;99.90
62912;DHT22;49111;51.028;4.218;2022-10-16T08:53:36;15.60;99.90
62912;DHT22;49111;51.028;4.218;2022-10-16T08:56:04;15.80;99.90
62912;DHT22;49111;51.028;4.218;2022-10-16T08:58:31;15.90;99.90
62912;DHT22;49111;51.028;4.218;2022-10-16T09:01:00;16.00;99.90
62912;DHT22;49111;51.028;4.218;2022-10-16T09:04:07;15.90;99.90
62912;DHT22;49111;51.028;4.218;2022-10-16T09:06:54;16.00;99.90
62912;DHT22;49111;51.028;4.218;2022-10-16T09:25:32;16.40;99.90
62912;DHT22;49111;51.028;4.218;2022-10-16T09:28:02;16.50;99.90
62912;DHT22;49111;51.028;4.218;2022-10-16T09:30:29;16.50;99.90
62912;DHT22;49111;51.028;4.218;2022-10-16T09:33:05;16.60;99.90
62912;DHT22;49111;51.028;4.218;2022-10-16T09:35:39;16.60;99.90
62912;DHT22;49111;51.028;4.218;2022-10-16T09:38:49;16.60;99.90
62912;DHT22;49111;51.028;4.218;2022-10-16T09:43:57;16.70;99.90
62912;DHT22;49111;51.028;4.218;2022-10-16T09:48:55;16.70;99.90
62912;DHT22;49111;51.028;4.218;2022-10-16T09:51:23;16.80;99.90
62912;DHT22;49111;51.028;4.218;2022-10-16T09:53:55;16.80;99.90
62912;DHT22;49111;51.028;4.218;2022-10-16T09:56:36;16.80;99.90
62912;DHT22;49111;51.028;4.218;2022-10-16T09:59:11;16.80;99.90
62912;DHT22;49111;51.028;4.218;2022-10-16T10:01:41;16.90;99.90
62912;DHT22;49111;51.028;4.218;2022-10-16T10:04:08;16.90;99.90
62912;DHT22;49111;51.028;4.218;2022-10-16T10:06:52;17.00;99.90
62912;DHT22;49111;51.028;4.218;2022-10-16T10:09:29;17.10;99.90
62912;DHT22;49111;51.028;4.218;2022-10-16T10:12:01;17.20;99.90
62912;DHT22;49111;51.028;4.218;2022-10-16T10:14:37;17.30;99.90
62912;DHT22;49111;51.028;4.218;2022-10-16T10:17:19;17.40;99.90
62912;DHT22;49111;51.028;4.218;2022-10-16T10:19:55;17.40;99.90
62912;DHT22;49111;51.028;4.218;2022-10-16T10:22:43;17.40;99.90
62912;DHT22;49111;51.028;4.218;2022-10-16T10:36:25;18.00;99.90
62912;DHT22;49111;51.028;4.218;2022-10-16T10:47:06;18.50;99.90
62912;DHT22;49111;51.028;4.218;2022-10-16T10:55:13;18.90;99.90
62912;DHT22;49111;51.028;4.218;2022-10-16T11:00:55;19.20;99.90
62912;DHT22;49111;51.028;4.218;2022-10-16T11:06:23;19.30;99.90
62912;DHT22;49111;51.028;4.218;2022-10-16T11:09:12;19.40;99.90
62912;DHT22;49111;51.028;4.218;2022-10-16T11:11:50;19.50;99.90
62912;DHT22;49111;51.028;4.218;2022-10-16T11:14:20;19.70;99.90
62912;DHT22;49111;51.028;4.218;2022-10-16T11:22:23;19.90;98.90
62912;DHT22;49111;51.028;4.218;2022-10-16T11:24:59;19.80;99.30
62912;DHT22;49111;51.028;4.218;2022-10-16T11:27:37;20.00;99.10
62912;DHT22;49111;51.028;4.218;2022-10-16T11:30:13;20.10;98.00
62912;DHT22;49111;51.028;4.218;2022-10-16T11:41:53;20.40;97.90
62912;DHT22;49111;51.028;4.218;2022-10-16T11:44:09;20.50;97.00
62912;DHT22;49111;51.028;4.218;2022-10-16T11:46:40;20.50;97.30
62912;DHT22;49111;51.028;4.218;2022-10-16T11:49:15;20.50;97.90
62912;DHT22;49111;51.028;4.218;2022-10-16T11:51:51;20.40;97.30
62912;DHT22;49111;51.028;4.218;2022-10-16T11:57:27;20.60;96.60
62912;DHT22;49111;51.028;4.218;2022-10-16T12:00:14;20.50;97.30
62912;DHT22;49111;51.028;4.218;2022-10-16T12:03:51;20.40;97.50
62912;DHT22;49111;51.028;4.218;2022-10-16T12:08:16;20.50;97.00
62912;DHT22;49111;51.028;4.218;2022-10-16T12:10:44;20.50;97.50
62912;DHT22;49111;51.028;4.218;2022-10-16T12:18:41;20.90;96.80
62912;DHT22;49111;51.028;4.218;2022-10-16T12:21:08;21.00;96.30
62912;DHT22;49111;51.028;4.218;2022-10-16T12:23:39;21.00;95.90
62912;DHT22;49111;51.028;4.218;2022-10-16T12:26:12;20.90;96.10
62912;DHT22;49111;51.028;4.218;2022-10-16T12:28:38;20.80;96.50
62912;DHT22;49111;51.028;4.218;2022-10-16T12:31:07;20.80;96.20
62912;DHT22;49111;51.028;4.218;2022-10-16T12:33:40;20.80;96.00
62912;DHT22;49111;51.028;4.218;2022-10-16T12:36:30;20.60;96.40
62912;DHT22;49111;51.028;4.218;2022-10-16T12:38:56;20.60;96.90
62912;DHT22;49111;51.028;4.218;2022-10-16T12:43:52;20.90;96.30
62912;DHT22;49111;51.028;4.218;2022-10-16T12:48:44;21.20;95.10
62912;DHT22;49111;51.028;4.218;2022-10-16T12:54:02;21.30;95.20
62912;DHT22;49111;51.028;4.218;2022-10-16T12:56:39;21.20;95.30
62912;DHT22;49111;51.028;4.218;2022-10-16T13:05:25;21.20;95.30
62912;DHT22;49111;51.028;4.218;2022-10-16T13:07:56;21.20;94.50
62912;DHT22;49111;51.028;4.218;2022-10-16T13:10:40;21.20;95.20
62912;DHT22;49111;51.028;4.218;2022-10-16T13:16:21;21.20;95.40
62912;DHT22;49111;51.028;4.218;2022-10-16T13:19:14;21.30;95.10
62912;DHT22;49111;51.028;4.218;2022-10-16T13:25:10;21.30;95.80
62912;DHT22;49111;51.028;4.218;2022-10-16T13:27:41;21.10;95.30
62912;DHT22;49111;51.028;4.218;2022-10-16T13:32:36;20.70;96.60
62912;DHT22;49111;51.028;4.218;2022-10-16T13:35:02;20.70;97.40
62912;DHT22;49111;51.028;4.218;2022-10-16T13:37:29;20.80;96.10
62912;DHT22;49111;51.028;4.218;2022-10-16T13:40:22;20.70;96.60
62912;DHT22;49111;51.028;4.218;2022-10-16T13:42:48;20.70;97.00
62912;DHT22;49111;51.028;4.218;2022-10-16T13:45:20;20.60;97.20
62912;DHT22;49111;51.028;4.218;2022-10-16T13:47:46;20.80;96.70
62912;DHT22;49111;51.028;4.218;2022-10-16T13:50:14;20.80;97.30
62912;DHT22;49111;51.028;4.218;2022-10-16T13:52:40;20.80;97.20
62912;DHT22;49111;51.028;4.218;2022-10-16T13:55:18;20.80;97.90
62912;DHT22;49111;51.028;4.218;2022-10-16T13:57:44;20.70;97.80
62912;DHT22;49111;51.028;4.218;2022-10-16T14:00:23;20.80;98.00
62912;DHT22;49111;51.028;4.218;2022-10-16T14:02:53;20.80;98.80
62912;DHT22;49111;51.028;4.218;2022-10-16T14:05:20;20.80;98.40
62912;DHT22;49111;51.028;4.218;2022-10-16T14:07:49;20.70;98.00
62912;DHT22;49111;51.028;4.218;2022-10-16T14:10:32;20.60;97.30
62912;DHT22;49111;51.028;4.218;2022-10-16T14:13:02;20.60;97.20
62912;DHT22;49111;51.028;4.218;2022-10-16T14:15:30;20.70;96.40
62912;DHT22;49111;51.028;4.218;2022-10-16T14:17:57;20.80;96.40
62912;DHT22;49111;51.028;4.218;2022-10-16T14:20:29;20.80;97.00
62912;DHT22;49111;51.028;4.218;2022-10-16T14:23:04;20.80;96.40
62912;DHT22;49111;51.028;4.218;2022-10-16T14:25:43;20.90;96.60
62912;DHT22;49111;51.028;4.218;2022-10-16T14:28:23;20.70;96.10
62912;DHT22;49111;51.028;4.218;2022-10-16T14:31:00;20.70;96.70
62912;DHT22;49111;51.028;4.218;2022-10-16T14:38:38;20.70;96.10
62912;DHT22;49111;51.028;4.218;2022-10-16T14:41:05;20.70;97.10
62912;DHT22;49111;51.028;4.218;2022-10-16T14:43:36;20.70;97.00
62912;DHT22;49111;51.028;4.218;2022-10-16T14:46:15;20.60;97.40
62912;DHT22;49111;51.028;4.218;2022-10-16T14:48:43;20.60;97.60
62912;DHT22;49111;51.028;4.218;2022-10-16T14:51:15;20.50;97.20
62912;DHT22;49111;51.028;4.218;2022-10-16T14:53:41;20.50;97.70
62912;DHT22;49111;51.028;4.218;2022-10-16T14:56:20;20.40;97.80
62912;DHT22;49111;51.028;4.218;2022-10-16T14:58:47;20.40;98.30
62912;DHT22;49111;51.028;4.218;2022-10-16T15:01:13;20.40;98.80
62912;DHT22;49111;51.028;4.218;2022-10-16T15:03:39;20.30;99.00
62912;DHT22;49111;51.028;4.218;2022-10-16T15:06:13;20.20;98.80
62912;DHT22;49111;51.028;4.218;2022-10-16T15:08:39;20.30;98.80
62912;DHT22;49111;51.028;4.218;2022-10-16T15:11:11;20.30;99.00
62912;DHT22;49111;51.028;4.218;2022-10-16T15:13:37;20.30;99.30
62912;DHT22;49111;51.028;4.218;2022-10-16T15:16:03;20.30;99.10
62912;DHT22;49111;51.028;4.218;2022-10-16T15:18:29;20.20;99.30
62912;DHT22;49111;51.028;4.218;2022-10-16T15:20:55;20.20;99.70
62912;DHT22;49111;51.028;4.218;2022-10-16T15:23:22;20.20;99.90
62912;DHT22;49111;51.028;4.218;2022-10-16T15:25:50;20.20;99.90
62912;DHT22;49111;51.028;4.218;2022-10-16T15:28:19;20.30;99.90
62912;DHT22;49111;51.028;4.218;2022-10-16T15:30:46;20.20;99.90
62912;DHT22;49111;51.028;4.218;2022-10-16T15:33:14;20.20;99.90
62912;DHT22;49111;51.028;4.218;2022-10-16T15:35:40;20.20;99.90
62912;DHT22;49111;51.028;4.218;2022-10-16T15:38:08;20.20;99.90
62912;DHT22;49111;51.028;4.218;2022-10-16T15:40:35;20.20;99.90
62912;DHT22;49111;51.028;4.218;2022-10-16T15:43:02;20.10;99.90
62912;DHT22;49111;51.028;4.218;2022-10-16T15:45:28;20.10;99.90
62912;DHT22;49111;51.028;4.218;2022-10-16T15:47:54;20.00;99.90
62912;DHT22;49111;51.028;4.218;2022-10-16T15:50:19;20.00;99.90
62912;DHT22;49111;51.028;4.218;2022-10-16T15:52:45;20.00;99.90
62912;DHT22;49111;51.028;4.218;2022-10-16T15:55:12;19.90;99.90
62912;DHT22;49111;51.028;4.218;2022-10-16T15:57:39;19.90;99.90
62912;DHT22;49111;51.028;4.218;2022-10-16T16:00:08;19.80;99.90
62912;DHT22;49111;51.028;4.218;2022-10-16T16:02:37;19.80;99.90
62912;DHT22;49111;51.028;4.218;2022-10-16T16:05:03;19.70;99.90
62912;DHT22;49111;51.028;4.218;2022-10-16T16:07:33;19.70;99.90
62912;DHT22;49111;51.028;4.218;2022-10-16T16:10:00;19.70;99.90
62912;DHT22;49111;51.028;4.218;2022-10-16T16:12:25;19.60;99.90
62912;DHT22;49111;51.028;4.218;2022-10-16T16:14:52;19.60;99.90
62912;DHT22;49111;51.028;4.218;2022-10-16T16:17:18;19.50;99.90
62912;DHT22;49111;51.028;4.218;2022-10-16T16:19:45;19.50;99.90
62912;DHT22;49111;51.028;4.218;2022-10-16T16:22:10;19.40;99.90
62912;DHT22;49111;51.028;4.218;2022-10-16T16:24:36;19.40;99.90
62912;DHT22;49111;51.028;4.218;2022-10-16T16:27:02;19.30;99.90
62912;DHT22;49111;51.028;4.218;2022-10-16T16:29:28;19.30;99.90
62912;DHT22;49111;51.028;4.218;2022-10-16T16:31:53;19.20;99.90
62912;DHT22;49111;51.028;4.218;2022-10-16T16:34:27;19.20;99.90
62912;DHT22;49111;51.028;4.218;2022-10-16T16:36:54;19.20;99.90
62912;DHT22;49111;51.028;4.218;2022-10-16T16:39:20;19.10;99.90
62912;DHT22;49111;51.028;4.218;2022-10-16T16:41:46;19.10;99.90
62912;DHT22;49111;51.028;4.218;2022-10-16T16:44:12;19.10;99.90
62912;DHT22;49111;51.028;4.218;2022-10-16T16:46:39;19.00;99.90
62912;DHT22;49111;51.028;4.218;2022-10-16T16:49:06;19.00;99.90
62912;DHT22;49111;51.028;4.218;2022-10-16T16:51:32;18.90;99.90
62912;DHT22;49111;51.028;4.218;2022-10-16T16:53:58;18.90;99.90
62912;DHT22;49111;51.028;4.218;2022-10-16T16:56:25;18.90;99.90
62912;DHT22;49111;51.028;4.218;2022-10-16T16:58:53;18.90;99.90
62912;DHT22;49111;51.028;4.218;2022-10-16T17:01:21;18.80;99.90
62912;DHT22;49111;51.028;4.218;2022-10-16T17:03:49;18.80;99.90
62912;DHT22;49111;51.028;4.218;2022-10-16T17:06:18;18.80;99.90
62912;DHT22;49111;51.028;4.218;2022-10-16T17:08:44;18.70;99.90
62912;DHT22;49111;51.028;4.218;2022-10-16T17:11:15;18.70;99.90
62912;DHT22;49111;51.028;4.218;2022-10-16T17:13:41;18.80;99.90
62912;DHT22;49111;51.028;4.218;2022-10-16T17:16:08;18.70;99.90
62912;DHT22;49111;51.028;4.218;2022-10-16T17:18:34;18.70;99.90
62912;DHT22;49111;51.028;4.218;2022-10-16T17:21:05;18.70;99.90
62912;DHT22;49111;51.028;4.218;2022-10-16T17:23:31;18.70;99.90
62912;DHT22;49111;51.028;4.218;2022-10-16T17:26:06;18.70;99.90
62912;DHT22;49111;51.028;4.218;2022-10-16T17:28:32;18.60;99.90
62912;DHT22;49111;51.028;4.218;2022-10-16T17:31:07;18.50;99.90
62912;DHT22;49111;51.028;4.218;2022-10-16T17:33:33;18.50;99.90
62912;DHT22;49111;51.028;4.218;2022-10-16T17:35:59;18.40;99.90
62912;DHT22;49111;51.028;4.218;2022-10-16T17:38:25;18.40;99.90
62912;DHT22;49111;51.028;4.218;2022-10-16T17:40:50;18.30;99.90
62912;DHT22;49111;51.028;4.218;2022-10-16T17:43:16;18.20;99.90
62912;DHT22;49111;51.028;4.218;2022-10-16T17:45:42;18.20;99.90
62912;DHT22;49111;51.028;4.218;2022-10-16T17:48:08;18.10;99.90
62912;DHT22;49111;51.028;4.218;2022-10-16T17:50:34;18.10;99.90
62912;DHT22;49111;51.028;4.218;2022-10-16T17:53:04;18.10;99.90
62912;DHT22;49111;51.028;4.218;2022-10-16T17:55:29;18.10;99.90
62912;DHT22;49111;51.028;4.218;2022-10-16T17:57:56;18.00;99.90
62912;DHT22;49111;51.028;4.218;2022-10-16T18:00:22;17.90;99.90
62912;DHT22;49111;51.028;4.218;2022-10-16T18:02:48;17.90;99.90
62912;DHT22;49111;51.028;4.218;2022-10-16T18:05:15;17.90;99.90
